ADDS METAR Data INFO
IDs: Format: Raw Decoded Include TAF

Data at: 0857 UTC 22 Feb 2018

KMZH 220855Z AUTO 00000KT 10SM CLR M23/M26 A3058 RMK AO2
KMZH 220835Z AUTO 00000KT 10SM CLR M23/M26 A3059 RMK AO2
KMZH 220815Z AUTO 00000KT 10SM CLR M23/M26 A3059 RMK AO2
KMZH 220755Z AUTO 00000KT 10SM CLR M22/M25 A3058 RMK AO2
KMZH 220735Z AUTO 00000KT 10SM CLR M22/M25 A3059 RMK AO2
KMZH 220715Z AUTO 00000KT 10SM CLR M22/M25 A3059 RMK AO2
KMZH 220655Z AUTO 00000KT 10SM CLR M21/M23 A3060 RMK AO2
KMZH 220635Z AUTO 00000KT 10SM CLR M21/M23 A3060 RMK AO2
KMZH 220615Z AUTO 00000KT 10SM CLR M20/M22 A3060 RMK AO2
KMZH 220555Z AUTO 00000KT 10SM SCT100 M20/M22 A3060 RMK AO2
KMZH 220535Z AUTO 00000KT 10SM SCT110 M20/M22 A3060 RMK AO2
KMZH 220515Z AUTO 00000KT 10SM CLR M17/M20 A3060 RMK AO2
KMZH 220455Z AUTO 00000KT 10SM CLR M18/M21 A3060 RMK AO2
KMZH 220435Z AUTO 00000KT 10SM CLR M16/M19 A3060 RMK AO2
KMZH 220415Z AUTO 00000KT 10SM CLR M16/M20 A3059 RMK AO2
KMZH 220355Z AUTO 25004KT 10SM SCT100 M16/M20 A3059 RMK AO2
KMZH 220035Z AUTO 20004KT 10SM CLR M10/M18 A3056 RMK AO2
KMZH 220015Z AUTO 20005KT 10SM CLR M09/M17 A3055 RMK AO2
KMZH 212355Z AUTO 19004KT 10SM CLR M08/M17 A3054 RMK AO2
KMZH 212335Z AUTO 20005KT 10SM CLR M07/M17 A3054 RMK AO2
KMZH 212315Z AUTO 19005KT 10SM CLR M06/M16 A3055 RMK AO2
KMZH 212255Z AUTO 20007KT 10SM CLR M06/M16 A3055 RMK AO2
KMZH 212235Z AUTO 19007KT 10SM CLR M05/M15 A3055 RMK AO2
KMZH 212215Z AUTO 19005KT 10SM CLR M05/M15 A3053 RMK AO2
KMZH 212155Z AUTO 19006KT 10SM CLR M05/M15 A3053 RMK AO2
KMZH 212135Z AUTO 19006KT 10SM CLR M05/M15 A3053 RMK AO2
KMZH 212116Z AUTO 18006KT 10SM CLR M05/M15 A3053 RMK AO2
KMZH 212055Z AUTO 19006KT 10SM CLR M05/M15 A3053 RMK AO2
KMZH 212035Z AUTO 19007KT 10SM CLR M05/M15 A3052 RMK AO2
KMZH 212015Z AUTO 23006KT 10SM CLR M05/M16 A3051 RMK AO2
KMZH 211955Z AUTO 23008KT 10SM CLR M05/M16 A3053 RMK AO2
KMZH 211935Z AUTO 21007KT 10SM CLR M05/M16 A3052 RMK AO2
KMZH 211915Z AUTO 21007KT 10SM CLR M06/M16 A3051 RMK AO2
KMZH 211855Z AUTO 19005KT 10SM CLR M06/M16 A3052 RMK AO2
KMZH 211835Z AUTO 24006KT 10SM CLR M06/M17 A3053 RMK AO2
KMZH 211815Z AUTO 20007KT 10SM CLR M08/M17 A3052 RMK AO2
KMZH 211755Z AUTO 22007KT 10SM CLR M08/M18 A3052 RMK AO2
KMZH 211735Z AUTO 22005KT 10SM CLR M10/M18 A3052 RMK AO2
KMZH 211716Z AUTO 20007KT 162V222 10SM CLR M10/M17 A3052 RMK AO2
KMZH 211655Z AUTO 20007KT 10SM CLR M10/M18 A3051 RMK AO2
KMZH 211635Z AUTO 24003KT 10SM CLR M11/M18 A3049 RMK AO2
KMZH 211615Z AUTO 21005KT 10SM CLR M12/M18 A3048 RMK AO2
KMZH 211555Z AUTO 21004KT 10SM CLR M14/M18 A3048 RMK AO2
KMZH 211535Z AUTO 24003KT 10SM CLR M15/M18 A3046 RMK AO2
KMZH 211515Z AUTO 24004KT 10SM CLR M16/M19 A3047 RMK AO2
KMZH 211455Z AUTO 00000KT 10SM CLR M18/M21 A3047 RMK AO2
KMZH 211435Z AUTO 00000KT 10SM CLR M20/M22 A3045 RMK AO2
KMZH 211415Z AUTO 24003KT 10SM CLR M21/M24 A3046 RMK AO2
KMZH 211355Z AUTO 00000KT 10SM CLR M22/M25 A3046 RMK AO2
KMZH 211335Z AUTO 22003KT 10SM CLR M23/M26 A3045 RMK AO2
KMZH 211315Z AUTO 24003KT 10SM CLR M23/M26 A3044 RMK AO2
KMZH 211255Z AUTO 00000KT 10SM CLR M23/M26 A3043 RMK AO2
KMZH 211235Z AUTO 20003KT 10SM CLR M22/M25 A3043 RMK AO2
KMZH 210755Z AUTO 23003KT 10SM SCT100 M17/M20 A3032 RMK AO2
KMZH 210735Z AUTO 23003KT 10SM CLR M17/M20 A3032 RMK AO2
KMZH 210715Z AUTO 24003KT 10SM CLR M17/M19 A3031 RMK AO2
KMZH 210655Z AUTO 25004KT 10SM CLR M16/M19 A3030 RMK AO2
KMZH 210635Z AUTO 26003KT 10SM CLR M15/M18 A3029 RMK AO2
KMZH 210615Z AUTO 25003KT 10SM CLR M15/M18 A3028 RMK AO2
KMZH 210555Z AUTO 28005KT 10SM CLR M15/M18 A3027 RMK AO2